Terminal Aerodrome Forecast
Issued by NWS

Home | Current Version | Previous Version | Text Only | Print | Product List | Glossary On
Versions: 1 2 3 4 5 6 7 8 9 10 11 12 13
000
FTAK31 PAFA 010539
TAFAOR
TAF
PAOR 010539Z 0106/0206 VRB04KT P6SM SCT060 SCT140 BKN190
     FM010800 00000KT P6SM FEW060 SCT120 BKN200
     FM012000 12007KT P6SM SCT120 BKN200=

USA.gov is the U.S. government's official web portal to all federal, state and local government web resources and services.